createdAt,value
2022-10-23T00:01:19.689Z,94088.47
2022-10-23T00:03:53.953Z,94088.25
2022-10-23T00:06:22.980Z,94086.34
2022-10-23T00:08:50.950Z,94100.41
2022-10-23T00:11:21.961Z,94105.38
2022-10-23T00:13:51.009Z,94096.81
2022-10-23T00:16:18.656Z,94088.38
2022-10-23T00:18:46.710Z,94095.44
2022-10-23T00:21:17.049Z,94090.34
2022-10-23T00:23:45.327Z,94053.50
2022-10-23T00:26:17.650Z,94095.22
2022-10-23T00:28:48.495Z,94086.88
2022-10-23T00:31:17.088Z,94097.63
2022-10-23T00:33:45.713Z,94108.81
2022-10-23T00:36:15.801Z,94114.13
2022-10-23T00:38:45.976Z,94085.13
2022-10-23T00:41:16.313Z,94071.38
2022-10-23T00:44:17.827Z,94072.53
2022-10-23T00:46:46.501Z,94079.03
2022-10-23T00:49:14.927Z,94068.56
2022-10-23T00:51:47.989Z,94075.28
2022-10-23T00:54:25.788Z,94085.25
2022-10-23T00:56:58.418Z,94099.94
2022-10-23T00:59:27.399Z,94087.03
2022-10-23T01:01:56.056Z,94080.78
2022-10-23T01:04:25.301Z,94078.94
2022-10-23T01:07:04.982Z,94081.00
2022-10-23T01:09:57.717Z,94074.81
2022-10-23T01:12:49.651Z,94069.78
2022-10-23T01:15:35.536Z,94075.41
2022-10-23T01:18:16.129Z,94084.38
2022-10-23T01:20:59.124Z,94082.25
2022-10-23T01:23:55.951Z,94066.63
2022-10-23T01:26:42.118Z,94075.44
2022-10-23T01:29:24.985Z,94082.53
2022-10-23T01:32:15.347Z,94083.38
2022-10-23T01:34:55.935Z,94088.97
2022-10-23T01:37:29.798Z,94085.13
2022-10-23T01:40:04.819Z,94080.28
2022-10-23T01:42:40.007Z,94089.22
2022-10-23T01:45:38.744Z,94098.53
2022-10-23T01:48:13.959Z,94109.34
2022-10-23T01:50:43.799Z,94096.44
2022-10-23T01:53:11.865Z,94109.28
2022-10-23T01:58:22.247Z,94106.66
2022-10-23T02:02:59.128Z,94108.28
2022-10-23T02:05:33.857Z,94112.03
2022-10-23T02:08:04.596Z,94107.28
2022-10-23T02:10:46.052Z,94095.91
2022-10-23T02:13:30.012Z,94100.28
2022-10-23T02:16:26.984Z,94102.09
2022-10-23T02:19:19.205Z,94124.34
2022-10-23T02:21:57.757Z,94122.53
2022-10-23T02:24:36.727Z,94125.69
2022-10-23T02:27:14.098Z,94126.38
2022-10-23T02:29:51.955Z,94122.22
2022-10-23T02:32:23.830Z,94115.97
2022-10-23T02:34:52.022Z,94124.00
2022-10-23T02:39:55.596Z,94125.16
2022-10-23T02:42:39.991Z,94137.97
2022-10-23T02:45:11.110Z,94136.13
2022-10-23T02:48:16.211Z,94140.91
2022-10-23T02:51:01.350Z,94148.88
2022-10-23T02:53:41.756Z,94152.50
2022-10-23T02:56:43.760Z,94152.44
2022-10-23T02:59:22.615Z,94154.66
2022-10-23T03:02:14.043Z,94138.84
2022-10-23T03:04:44.327Z,94157.91
2022-10-23T03:07:14.449Z,94166.00
2022-10-23T03:09:43.809Z,94156.94
2022-10-23T03:12:11.787Z,94145.81
2022-10-23T03:14:39.893Z,94144.16
2022-10-23T03:17:10.450Z,94129.69
2022-10-23T03:19:38.439Z,94146.16
2022-10-23T03:22:06.378Z,94153.53
2022-10-23T03:24:34.271Z,94159.63
2022-10-23T03:27:02.429Z,94118.91
2022-10-23T03:29:33.214Z,94171.06
2022-10-23T03:32:01.197Z,94166.06
2022-10-23T03:34:29.185Z,94163.97
2022-10-23T03:36:57.203Z,94166.63
2022-10-23T03:39:25.208Z,94167.72
2022-10-23T03:41:53.255Z,94179.63
2022-10-23T03:44:22.424Z,94183.28
2022-10-23T03:46:50.435Z,94186.88
2022-10-23T03:49:18.433Z,94188.00
2022-10-23T03:51:52.197Z,94185.88
2022-10-23T03:54:23.913Z,94182.50
2022-10-23T03:56:55.161Z,94189.28
2022-10-23T03:59:25.529Z,94186.72
2022-10-23T04:01:53.998Z,94179.38
2022-10-23T04:04:22.165Z,94190.72
2022-10-23T04:06:50.158Z,94192.53
2022-10-23T04:09:20.230Z,94185.16
2022-10-23T04:11:48.312Z,94187.66
2022-10-23T04:14:16.213Z,94176.25
2022-10-23T04:16:44.133Z,94197.88
2022-10-23T04:19:12.421Z,94193.97
2022-10-23T04:21:42.195Z,94183.22
2022-10-23T04:24:10.395Z,94192.44
2022-10-23T04:26:38.527Z,94196.31
2022-10-23T04:29:07.286Z,94201.66
2022-10-23T04:31:38.113Z,94207.91
2022-10-23T04:36:39.024Z,94192.09
2022-10-23T04:39:11.627Z,94201.66
2022-10-23T04:41:39.673Z,94198.84
2022-10-23T04:44:07.950Z,94196.25
2022-10-23T04:46:39.544Z,94195.88
2022-10-23T04:49:07.682Z,94194.41
2022-10-23T04:52:10.968Z,94202.50
2022-10-23T04:54:41.761Z,94197.50
2022-10-23T04:57:24.878Z,94214.56
2022-10-23T05:00:07.170Z,94217.56
2022-10-23T05:02:55.624Z,94216.41
2022-10-23T05:05:24.118Z,94210.47
2022-10-23T05:07:54.756Z,94213.22
2022-10-23T05:10:28.518Z,94204.75
2022-10-23T05:13:03.353Z,94195.88
2022-10-23T05:15:31.472Z,94210.63
2022-10-23T05:18:10.844Z,94213.84
2022-10-23T05:20:40.418Z,94209.94
2022-10-23T05:23:13.891Z,94212.94
2022-10-23T05:25:49.762Z,94209.34
2022-10-23T05:28:19.072Z,94204.63
2022-10-23T05:30:47.928Z,94207.09
2022-10-23T05:33:18.151Z,94202.47
2022-10-23T05:35:46.230Z,94191.06
2022-10-23T05:38:16.902Z,94213.84
2022-10-23T05:40:45.491Z,94215.44
2022-10-23T05:43:19.773Z,94222.00
2022-10-23T05:45:54.461Z,94216.94
2022-10-23T05:48:45.432Z,94228.22
2022-10-23T05:51:28.626Z,94228.28
2022-10-23T05:54:10.042Z,94239.88
2022-10-23T05:56:57.606Z,94244.28
2022-10-23T05:59:34.626Z,94241.75
2022-10-23T06:02:21.239Z,94238.09
2022-10-23T06:04:54.715Z,94245.78
2022-10-23T06:07:32.408Z,94237.75
2022-10-23T06:10:06.883Z,94239.72
2022-10-23T06:12:39.624Z,94246.81
2022-10-23T06:15:08.510Z,94244.19
2022-10-23T06:17:55.036Z,94249.72
2022-10-23T06:20:26.557Z,94250.00
2022-10-23T06:23:07.832Z,94246.31
2022-10-23T06:25:57.838Z,94242.56
2022-10-23T06:28:46.376Z,94234.22
2022-10-23T06:31:16.731Z,94227.88
2022-10-23T06:33:45.045Z,94231.19
2022-10-23T06:36:13.554Z,94230.47
2022-10-23T06:38:43.765Z,94229.69
2022-10-23T06:41:15.591Z,94236.16
2022-10-23T06:43:47.872Z,94249.34
2022-10-23T06:46:42.544Z,94240.53
2022-10-23T06:49:28.936Z,94245.31
2022-10-23T06:51:59.520Z,94242.06
2022-10-23T06:54:27.782Z,94244.59
2022-10-23T06:57:20.954Z,94249.09
2022-10-23T06:59:50.726Z,94245.47
2022-10-23T07:02:19.259Z,94233.25
2022-10-23T07:04:47.683Z,94225.00
2022-10-23T07:07:19.288Z,94228.00
2022-10-23T07:09:49.687Z,94220.75
2022-10-23T07:12:36.289Z,94222.63
2022-10-23T07:15:33.351Z,94229.63
2022-10-23T07:18:02.238Z,94240.13
2022-10-23T07:20:43.305Z,94249.06
2022-10-23T07:23:12.447Z,94202.22
2022-10-23T07:25:43.753Z,94237.81
2022-10-23T07:28:12.271Z,94219.00
2022-10-23T07:30:41.598Z,94221.69
2022-10-23T07:33:12.816Z,94231.28
2022-10-23T07:36:12.899Z,94218.25
2022-10-23T07:38:42.549Z,94201.69
2022-10-23T07:41:12.518Z,94218.13
2022-10-23T07:43:41.174Z,94228.03
2022-10-23T07:46:10.228Z,94243.28
2022-10-23T07:48:41.526Z,94242.88
2022-10-23T07:51:15.422Z,94245.13
2022-10-23T07:53:47.113Z,94247.50
2022-10-23T07:56:36.825Z,94262.13
2022-10-23T07:59:20.767Z,94266.41
2022-10-23T08:01:56.975Z,94263.91
2022-10-23T08:04:31.785Z,94256.97
2022-10-23T08:07:05.372Z,94256.38
2022-10-23T08:09:39.720Z,94256.63
2022-10-23T08:12:10.504Z,94242.34
2022-10-23T08:14:39.367Z,94273.53
2022-10-23T08:17:10.269Z,94261.16
2022-10-23T08:19:58.863Z,94252.72
2022-10-23T08:22:32.136Z,94252.41
2022-10-23T08:25:00.668Z,94255.88
2022-10-23T08:27:29.020Z,94243.88
2022-10-23T08:29:57.111Z,94268.38
2022-10-23T08:32:25.452Z,94249.28
2022-10-23T08:35:01.529Z,94266.50
2022-10-23T08:37:32.498Z,94253.13
2022-10-23T08:40:00.613Z,94261.50
2022-10-23T08:43:19.269Z,94256.66
2022-10-23T08:46:10.725Z,94254.41
2022-10-23T08:49:25.795Z,94258.44
2022-10-23T08:52:14.132Z,94252.72
2022-10-23T08:54:42.871Z,94260.44
2022-10-23T08:57:16.315Z,94248.25
2022-10-23T08:59:50.630Z,94257.53
2022-10-23T09:02:43.513Z,94264.31
2022-10-23T09:05:40.887Z,94261.16
2022-10-23T09:08:47.482Z,94264.69
2022-10-23T09:11:31.790Z,94264.06
2022-10-23T09:14:27.017Z,94264.66
2022-10-23T09:17:23.509Z,94258.25
2022-10-23T09:20:00.969Z,94258.25
2022-10-23T09:22:30.072Z,94246.34
2022-10-23T09:24:58.914Z,94246.81
2022-10-23T09:27:27.355Z,94250.44
2022-10-23T09:29:56.710Z,94244.19
2022-10-23T09:32:38.860Z,94246.50
2022-10-23T09:35:07.559Z,94258.69
2022-10-23T09:37:37.790Z,94247.78
2022-10-23T09:40:14.971Z,94246.31
2022-10-23T09:42:53.624Z,94251.94
2022-10-23T09:45:34.529Z,94251.53
2022-10-23T09:48:18.559Z,94262.19
2022-10-23T09:50:52.696Z,94257.41
2022-10-23T09:53:27.278Z,94250.44
2022-10-23T09:55:57.277Z,94237.22
2022-10-23T09:58:32.195Z,94238.09
2022-10-23T10:01:01.170Z,94243.66
2022-10-23T10:03:52.294Z,94233.28
2022-10-23T10:06:33.146Z,94237.16
2022-10-23T10:09:08.716Z,94229.28
2022-10-23T10:11:55.995Z,94230.41
2022-10-23T10:14:33.372Z,94230.94
2022-10-23T10:17:42.507Z,94230.09
2022-10-23T10:20:41.479Z,94220.88
2022-10-23T10:23:27.499Z,94222.09
2022-10-23T10:26:07.904Z,94221.41
2022-10-23T10:29:00.782Z,94213.84
2022-10-23T10:31:55.265Z,94202.72
2022-10-23T10:34:33.657Z,94205.97
2022-10-23T10:37:11.771Z,94212.56
2022-10-23T10:40:13.758Z,94212.28
2022-10-23T10:42:49.360Z,94202.56
2022-10-23T10:45:19.671Z,94200.28
2022-10-23T10:47:55.414Z,94202.63
2022-10-23T10:50:31.781Z,94202.28
2022-10-23T10:53:23.268Z,94208.25
2022-10-23T10:55:56.243Z,94200.50
2022-10-23T10:58:49.624Z,94179.00
2022-10-23T11:01:27.022Z,94201.44
2022-10-23T11:04:14.034Z,94206.09
2022-10-23T11:06:46.840Z,94191.16
2022-10-23T11:09:21.425Z,94189.44
2022-10-23T11:11:50.163Z,94184.63
2022-10-23T11:14:21.712Z,94190.03
2022-10-23T11:16:53.522Z,94183.25
2022-10-23T11:19:38.364Z,94174.88
2022-10-23T11:22:19.720Z,94184.22
2022-10-23T11:25:04.913Z,94173.97
2022-10-23T11:28:10.517Z,94175.28
2022-10-23T11:31:13.949Z,94166.75
2022-10-23T11:34:07.163Z,94164.81
2022-10-23T11:36:56.813Z,94165.91
2022-10-23T11:39:31.064Z,94163.50
2022-10-23T11:42:06.999Z,94157.09
2022-10-23T11:44:41.113Z,94154.78
2022-10-23T11:47:38.018Z,94154.06
2022-10-23T11:50:07.822Z,94147.63
2022-10-23T11:52:50.498Z,94151.97
2022-10-23T11:55:24.591Z,94144.13
2022-10-23T11:58:16.646Z,94149.09
2022-10-23T12:00:56.959Z,94143.66
2022-10-23T12:03:43.230Z,94145.25
2022-10-23T12:06:31.876Z,94139.97
2022-10-23T12:09:05.494Z,94135.00
2022-10-23T12:11:48.859Z,94129.38
2022-10-23T12:14:36.670Z,94134.50
2022-10-23T12:17:25.779Z,94135.91
2022-10-23T12:20:20.047Z,94139.22
2022-10-23T12:23:12.314Z,94142.50
2022-10-23T12:25:52.245Z,94135.06
2022-10-23T12:28:29.817Z,94131.97
2022-10-23T12:31:18.151Z,94129.66
2022-10-23T12:34:10.966Z,94130.63
2022-10-23T12:36:53.061Z,94141.00
2022-10-23T12:39:33.035Z,94139.97
2022-10-23T12:42:01.769Z,94139.53
2022-10-23T12:44:30.888Z,94134.84
2022-10-23T12:47:04.739Z,94143.31
2022-10-23T12:49:35.009Z,94134.13
2022-10-23T12:52:16.929Z,94147.47
2022-10-23T12:54:45.950Z,94140.22
2022-10-23T12:57:22.538Z,94138.34
2022-10-23T12:59:55.881Z,94137.56
2022-10-23T13:02:30.000Z,94141.44
2022-10-23T13:05:02.660Z,94135.81
2022-10-23T13:07:39.283Z,94150.16
2022-10-23T13:10:15.749Z,94145.06
2022-10-23T13:13:04.110Z,94149.06
2022-10-23T13:15:41.145Z,94134.91
2022-10-23T13:18:17.385Z,94144.56
2022-10-23T13:20:52.501Z,94156.00
2022-10-23T13:23:34.834Z,94154.84
2022-10-23T13:26:36.283Z,94146.31
2022-10-23T13:29:31.793Z,94141.41
2022-10-23T13:32:13.538Z,94145.66
2022-10-23T13:35:03.622Z,94152.03
2022-10-23T13:37:39.497Z,94139.59
2022-10-23T13:40:25.474Z,94145.22
2022-10-23T13:42:56.325Z,94145.94
2022-10-23T13:45:27.230Z,94125.94
2022-10-23T13:47:55.858Z,94140.41
2022-10-23T13:50:24.373Z,94143.63
2022-10-23T13:52:53.421Z,94157.19
2022-10-23T13:55:26.923Z,94139.00
2022-10-23T13:57:56.806Z,94158.31
2022-10-23T14:00:25.323Z,94150.22
2022-10-23T14:05:23.665Z,94161.13
2022-10-23T14:07:52.338Z,94159.91
2022-10-23T14:10:22.616Z,94157.50
2022-10-23T14:12:55.330Z,94145.84
2022-10-23T14:15:23.945Z,94152.38
2022-10-23T14:17:58.017Z,94075.81
2022-10-23T14:20:28.934Z,94158.75
2022-10-23T14:22:57.547Z,94162.34
2022-10-23T14:25:26.235Z,94104.19
2022-10-23T14:30:28.986Z,94155.41
2022-10-23T14:32:57.613Z,94156.47
2022-10-23T14:35:26.271Z,94153.06
2022-10-23T14:37:54.776Z,94148.16
2022-10-23T14:40:23.287Z,94151.53
2022-10-23T14:42:51.809Z,94150.81
2022-10-23T14:45:21.326Z,94157.84
2022-10-23T14:47:49.629Z,94153.13
2022-10-23T14:50:18.009Z,94147.56
2022-10-23T14:52:46.377Z,94153.50
2022-10-23T14:55:14.665Z,94153.38
2022-10-23T14:57:43.366Z,94154.72
2022-10-23T15:00:12.827Z,94147.13
2022-10-23T15:02:42.191Z,94153.56
2022-10-23T15:05:22.769Z,94154.31
2022-10-23T15:07:52.289Z,94139.06
2022-10-23T15:10:20.903Z,94153.44
2022-10-23T15:12:49.750Z,94128.06
2022-10-23T15:15:18.359Z,94151.56
2022-10-23T15:17:46.905Z,94148.50
2022-10-23T15:20:15.760Z,94143.25
2022-10-23T15:22:44.570Z,94150.00
2022-10-23T15:25:17.778Z,94137.09
2022-10-23T15:27:46.832Z,94141.16
2022-10-23T15:30:15.615Z,94155.84
2022-10-23T15:32:45.003Z,94154.91
2022-10-23T15:35:13.607Z,94160.81
2022-10-23T15:37:42.387Z,94163.28
2022-10-23T15:40:11.625Z,94162.88
2022-10-23T15:42:39.973Z,94169.66
2022-10-23T15:45:08.708Z,94141.25
2022-10-23T15:47:37.231Z,94185.31
2022-10-23T15:50:08.682Z,94179.72
2022-10-23T15:52:37.083Z,94076.16
2022-10-23T15:55:06.020Z,94192.47
2022-10-23T15:57:34.875Z,94190.94
2022-10-23T16:00:06.416Z,94198.78
2022-10-23T16:02:38.123Z,94166.56
2022-10-23T16:05:06.997Z,94187.81
2022-10-23T16:07:35.516Z,94202.16
2022-10-23T16:10:04.476Z,94206.50
2022-10-23T16:12:33.204Z,94209.22
2022-10-23T16:15:01.441Z,94207.91
2022-10-23T16:17:30.165Z,94198.53
2022-10-23T16:19:58.735Z,94210.38
2022-10-23T16:22:28.047Z,94214.16
2022-10-23T16:24:56.688Z,94213.91
2022-10-23T16:27:25.369Z,94211.50
2022-10-23T16:29:54.104Z,94194.53
2022-10-23T16:32:22.707Z,94223.88
2022-10-23T16:34:51.173Z,94227.09
2022-10-23T16:37:21.679Z,94223.59
2022-10-23T16:40:02.358Z,94233.03
2022-10-23T16:42:49.388Z,94237.06
2022-10-23T16:45:30.140Z,94233.84
2022-10-23T16:47:59.986Z,94228.69
2022-10-23T16:50:28.769Z,94214.16
2022-10-23T16:52:57.577Z,94242.66
2022-10-23T16:55:25.833Z,94236.72
2022-10-23T16:57:54.336Z,94242.03
2022-10-23T17:00:23.594Z,94241.47
2022-10-23T17:02:54.482Z,94240.63
2022-10-23T17:05:23.144Z,94239.78
2022-10-23T17:13:02.091Z,94256.81
2022-10-23T17:15:30.516Z,94259.34
2022-10-23T17:17:59.459Z,94264.94
2022-10-23T17:20:28.024Z,94261.09
2022-10-23T17:22:56.818Z,94266.69
2022-10-23T17:25:26.252Z,94267.72
2022-10-23T17:27:54.544Z,94259.31
2022-10-23T17:30:22.887Z,94256.94
2022-10-23T17:32:51.224Z,94268.75
2022-10-23T17:35:20.114Z,94232.81
2022-10-23T17:37:50.863Z,94275.50
2022-10-23T17:40:22.770Z,94271.56
2022-10-23T17:42:53.546Z,94267.16
2022-10-23T17:45:22.040Z,94262.06
2022-10-23T17:47:50.944Z,94275.91
2022-10-23T17:50:19.875Z,94281.53
2022-10-23T17:52:49.163Z,94279.59
2022-10-23T17:55:17.792Z,94239.13
2022-10-23T17:57:46.632Z,94287.84
2022-10-23T18:00:16.564Z,94288.91
2022-10-23T18:02:45.257Z,94274.78
2022-10-23T18:05:13.757Z,94286.06
2022-10-23T18:07:42.620Z,94279.59
2022-10-23T18:10:11.842Z,94285.47
2022-10-23T18:12:40.755Z,94286.47
2022-10-23T18:15:09.839Z,94285.16
2022-10-23T18:17:38.280Z,94281.09
2022-10-23T18:20:07.868Z,94276.06
2022-10-23T18:22:36.981Z,94277.69
2022-10-23T18:25:06.046Z,94267.09
2022-10-23T18:27:34.731Z,94285.66
2022-10-23T18:30:03.505Z,94286.97
2022-10-23T18:32:32.151Z,94284.25
2022-10-23T18:35:00.649Z,94293.03
2022-10-23T18:37:30.291Z,94285.00
2022-10-23T18:40:01.664Z,94286.22
2022-10-23T18:42:30.169Z,94297.00
2022-10-23T18:44:58.668Z,94301.72
2022-10-23T18:47:27.353Z,94303.78
2022-10-23T18:49:55.768Z,94308.34
2022-10-23T18:52:24.140Z,94307.91
2022-10-23T18:54:52.796Z,94305.50
2022-10-23T18:57:21.348Z,94305.72
2022-10-23T18:59:51.370Z,94306.38
2022-10-23T19:02:20.131Z,94317.38
2022-10-23T19:04:48.582Z,94313.84
2022-10-23T19:07:17.774Z,94312.78
2022-10-23T19:09:46.279Z,94311.97
2022-10-23T19:14:50.169Z,94312.94
2022-10-23T19:17:23.027Z,94322.56
2022-10-23T19:20:00.849Z,94322.41
2022-10-23T19:22:37.207Z,94324.00
2022-10-23T19:25:11.719Z,94321.16
2022-10-23T19:27:40.826Z,94309.56
2022-10-23T19:30:14.092Z,94283.38
2022-10-23T19:32:45.332Z,94323.44
2022-10-23T19:35:16.818Z,94327.88
2022-10-23T19:37:45.862Z,94326.09
2022-10-23T19:40:16.547Z,94324.22
2022-10-23T19:42:45.261Z,94323.44
2022-10-23T19:45:15.077Z,94320.41
2022-10-23T19:47:43.695Z,94313.78
2022-10-23T19:50:12.434Z,94327.69
2022-10-23T19:52:40.885Z,94319.31
2022-10-23T19:55:09.420Z,94332.72
2022-10-23T19:57:37.745Z,94329.34
2022-10-23T20:00:07.776Z,94330.94
2022-10-23T20:02:38.804Z,94332.59
2022-10-23T20:05:10.231Z,94326.53
2022-10-23T20:07:38.317Z,94341.03
2022-10-23T20:10:08.478Z,94344.66
2022-10-23T20:12:36.466Z,94338.88
2022-10-23T20:15:05.000Z,94349.19
2022-10-23T20:17:32.902Z,94343.50
2022-10-23T20:20:00.967Z,94336.19
2022-10-23T20:22:29.027Z,94335.50
2022-10-23T20:24:57.232Z,94326.72
2022-10-23T20:27:25.267Z,94339.94
2022-10-23T20:29:53.186Z,94336.34
2022-10-23T20:32:21.193Z,94337.84
2022-10-23T20:34:49.212Z,94343.53
2022-10-23T20:37:17.348Z,94334.50
2022-10-23T20:39:45.536Z,94342.59
2022-10-23T20:42:13.550Z,94334.47
2022-10-23T20:44:41.723Z,94330.06
2022-10-23T20:47:10.091Z,94332.97
2022-10-23T20:49:38.175Z,94339.56
2022-10-23T20:52:06.455Z,94334.16
2022-10-23T20:54:36.147Z,94329.84
2022-10-23T20:57:04.354Z,94335.53
2022-10-23T20:59:34.288Z,94334.97
2022-10-23T21:02:02.535Z,94294.97
2022-10-23T21:04:30.621Z,94334.59
2022-10-23T21:07:14.380Z,94340.50
2022-10-23T21:09:43.071Z,94341.69
2022-10-23T21:12:11.079Z,94301.19
2022-10-23T21:14:39.188Z,94336.34
2022-10-23T21:17:08.884Z,94342.72
2022-10-23T21:19:37.011Z,94340.03
2022-10-23T21:22:05.047Z,94344.31
2022-10-23T21:24:33.096Z,94340.91
2022-10-23T21:27:03.107Z,94341.09
2022-10-23T21:29:31.051Z,94333.03
2022-10-23T21:32:01.742Z,94343.38
2022-10-23T21:34:30.102Z,94341.19
2022-10-23T21:37:14.664Z,94333.53
2022-10-23T21:39:44.499Z,94337.56
2022-10-23T21:42:14.175Z,94324.66
2022-10-23T21:44:42.323Z,94330.63
2022-10-23T21:47:10.449Z,94331.22
2022-10-23T21:49:38.413Z,94334.19
2022-10-23T21:52:06.512Z,94337.94
2022-10-23T21:54:34.423Z,94333.41
2022-10-23T21:57:03.675Z,94340.34
2022-10-23T21:59:35.548Z,94340.13
2022-10-23T22:02:04.469Z,94347.91
2022-10-23T22:04:32.694Z,94329.38
2022-10-23T22:07:02.085Z,94340.81
2022-10-23T22:09:30.726Z,94344.16
2022-10-23T22:12:00.056Z,94336.13
2022-10-23T22:14:28.801Z,94347.66
2022-10-23T22:16:56.914Z,94348.63
2022-10-23T22:19:25.711Z,94348.03
2022-10-23T22:21:54.266Z,94334.81
2022-10-23T22:24:22.486Z,94350.88
2022-10-23T22:26:53.601Z,94344.88
2022-10-23T22:29:25.654Z,94352.16
2022-10-23T22:31:54.164Z,94334.03
2022-10-23T22:34:48.241Z,94349.44
2022-10-23T22:37:16.550Z,94352.31
2022-10-23T22:39:44.413Z,94349.66
2022-10-23T22:42:12.429Z,94342.50
2022-10-23T22:44:44.506Z,94356.78
2022-10-23T22:47:12.470Z,94354.69
2022-10-23T22:49:40.528Z,94345.75
2022-10-23T22:52:08.334Z,94349.75
2022-10-23T22:54:36.380Z,94346.22
2022-10-23T22:57:04.281Z,94347.44
2022-10-23T22:59:32.306Z,94347.16
2022-10-23T23:02:00.243Z,94348.69
2022-10-23T23:04:37.742Z,94352.31
2022-10-23T23:07:08.973Z,94352.34
2022-10-23T23:09:41.725Z,94352.03
2022-10-23T23:12:12.307Z,94343.88
2022-10-23T23:14:41.081Z,94349.06
2022-10-23T23:17:09.809Z,94346.78
2022-10-23T23:19:37.802Z,94345.31
2022-10-23T23:22:06.096Z,94332.34
2022-10-23T23:24:34.490Z,94354.03
2022-10-23T23:27:02.350Z,94352.56
2022-10-23T23:29:30.353Z,94354.28
2022-10-23T23:31:58.546Z,94341.53
2022-10-23T23:34:26.731Z,94348.84
2022-10-23T23:36:54.635Z,94346.47
2022-10-23T23:39:22.618Z,94335.41
2022-10-23T23:41:50.699Z,94347.81
2022-10-23T23:44:18.557Z,94347.81
2022-10-23T23:46:46.506Z,94340.56
2022-10-23T23:49:14.362Z,94354.47
2022-10-23T23:51:42.328Z,94350.53
2022-10-23T23:54:10.388Z,94346.88
2022-10-23T23:56:38.237Z,94339.47
2022-10-23T23:59:06.304Z,94342.81
